Time;durP1;ratioP1;P1;durP2;ratioP2;P2;SDS_P1;SDS_P2;PMS_P1;PMS_P2;Temp;Humidity;BMP_temperature;BMP_pressure;BME280_temperature;BME280_humidity;BME280_pressure;Samples;Min_cycle;Max_cycle;Signal;HPM_P1;HPM_P2
2023/02/12 00:00:16;;;;;;;65.13;26.93;;;;;;;;;;6175613;23;20189;-90
2023/02/12 00:03:23;;;;;;;68.47;27.37;;;;;;;;;;6175768;23;20173;-90
2023/02/12 00:06:31;;;;;;;62.33;26.03;;;;;;;;;;6176290;23;20193;-89
2023/02/12 00:09:37;;;;;;;62.17;26.23;;;;;;;;;;6158287;23;20169;-89
2023/02/12 00:12:44;;;;;;;65.93;28.50;;;;;;;;;;6175228;23;20287;-89
2023/02/12 00:15:50;;;;;;;66.27;28.37;;;;;;;;;;6175413;23;20193;-90
2023/02/12 00:18:57;;;;;;;77.80;29.83;;;;;;;;;;6176632;23;20149;-91
2023/02/12 00:22:02;;;;;;;69.67;28.93;;;;;;;;;;6174484;23;20155;-91
2023/02/12 00:25:08;;;;;;;62.03;26.17;;;;;;;;;;6175925;23;20189;-91
2023/02/12 00:28:16;;;;;;;68.67;28.07;;;;;;;;;;6173530;23;20169;-92
2023/02/12 00:31:22;;;;;;;59.87;26.20;;;;;;;;;;6174256;23;20647;-92
2023/02/12 00:34:28;;;;;;;61.73;26.63;;;;;;;;;;6173613;23;20172;-91
2023/02/12 00:37:33;;;;;;;77.43;28.53;;;;;;;;;;6173870;23;20160;-92
2023/02/12 00:40:40;;;;;;;60.40;28.17;;;;;;;;;;6173065;23;20250;-93
2023/02/12 00:43:48;;;;;;;65.80;27.83;;;;;;;;;;6172589;23;20216;-92
2023/02/12 00:46:53;;;;;;;70.70;28.03;;;;;;;;;;6173966;23;20222;-91
2023/02/12 00:50:01;;;;;;;73.10;28.37;;;;;;;;;;6173157;23;20216;-90
2023/02/12 00:53:06;;;;;;;70.67;27.77;;;;;;;;;;6172672;23;20179;-92
2023/02/12 00:56:12;;;;;;;65.57;27.57;;;;;;;;;;6173079;23;20172;-93
2023/02/12 00:59:19;;;;;;;69.23;27.83;;;;;;;;;;6174827;23;20185;-90
2023/02/12 01:02:25;;;;;;;63.03;26.50;;;;;;;;;;6173953;23;20157;-89
2023/02/12 01:05:31;;;;;;;66.90;27.57;;;;;;;;;;6172367;23;20172;-90
2023/02/12 01:08:36;;;;;;;64.67;27.47;;;;;;;;;;6172566;23;20153;-89
2023/02/12 01:11:50;;;;;;;67.23;25.97;;;;;;;;;;6173109;23;20245;-90
2023/02/12 01:14:57;;;;;;;63.77;25.87;;;;;;;;;;6173518;23;20174;-89
2023/02/12 01:18:03;;;;;;;67.20;27.10;;;;;;;;;;6172313;23;20169;-91
2023/02/12 01:21:12;;;;;;;61.47;26.47;;;;;;;;;;6172270;23;20285;-91
2023/02/12 01:24:17;;;;;;;62.33;26.07;;;;;;;;;;6172726;23;20184;-89
2023/02/12 01:27:23;;;;;;;62.53;26.43;;;;;;;;;;6172913;23;20209;-92
2023/02/12 01:30:29;;;;;;;62.93;25.60;;;;;;;;;;6172419;23;20296;-93
2023/02/12 01:33:35;;;;;;;65.97;26.90;;;;;;;;;;6173250;23;20196;-89
2023/02/12 01:36:51;;;;;;;69.80;26.77;;;;;;;;;;6172695;23;20540;-89
2023/02/12 01:39:58;;;;;;;65.73;26.57;;;;;;;;;;6171844;23;20162;-90
2023/02/12 01:43:07;;;;;;;70.93;27.07;;;;;;;;;;6173548;23;20183;-91
2023/02/12 01:46:15;;;;;;;62.93;26.53;;;;;;;;;;6156048;23;20169;-91
2023/02/12 01:49:27;;;;;;;63.90;26.93;;;;;;;;;;6157191;23;20167;-90
2023/02/12 01:52:39;;;;;;;60.90;26.80;;;;;;;;;;6155961;23;20543;-91
2023/02/12 01:55:50;;;;;;;64.07;25.23;;;;;;;;;;6156960;23;20172;-91
2023/02/12 01:58:57;;;;;;;62.77;26.03;;;;;;;;;;6156954;23;20169;-90
2023/02/12 02:02:29;;;;;;;64.77;26.70;;;;;;;;;;6155981;23;20220;-90
2023/02/12 02:05:40;;;;;;;64.00;25.70;;;;;;;;;;6155710;23;20164;-89
2023/02/12 02:08:47;;;;;;;59.27;24.97;;;;;;;;;;6156820;23;20168;-93
2023/02/12 02:15:16;;;;;;;57.83;24.67;;;;;;;;;;6157009;23;20184;-91
2023/02/12 02:19:00;;;;;;;57.70;24.90;;;;;;;;;;6156488;23;20201;-91
2023/02/12 02:22:18;;;;;;;63.83;24.70;;;;;;;;;;6157779;23;20169;-90
2023/02/12 02:25:37;;;;;;;58.40;25.77;;;;;;;;;;6156246;23;20177;-89
2023/02/12 02:29:03;;;;;;;68.43;26.87;;;;;;;;;;6155184;23;20229;-93
2023/02/12 02:32:13;;;;;;;66.37;27.23;;;;;;;;;;6137003;23;20257;-90
2023/02/12 02:35:24;;;;;;;67.67;25.53;;;;;;;;;;6156358;23;20193;-90
2023/02/12 02:38:34;;;;;;;63.50;26.80;;;;;;;;;;6154889;23;20172;-89
2023/02/12 02:41:42;;;;;;;62.93;25.47;;;;;;;;;;6154283;23;20479;-90
2023/02/12 02:44:51;;;;;;;59.43;25.17;;;;;;;;;;6168943;23;20180;-89
2023/02/12 02:48:00;;;;;;;56.73;25.30;;;;;;;;;;6171266;23;20239;-90
2023/02/12 02:51:08;;;;;;;58.73;25.40;;;;;;;;;;6173236;23;20168;-91
2023/02/12 02:54:20;;;;;;;59.63;25.23;;;;;;;;;;6172558;23;20164;-90
2023/02/12 02:57:29;;;;;;;65.93;26.23;;;;;;;;;;6172138;23;20164;-89
2023/02/12 03:00:37;;;;;;;54.70;24.30;;;;;;;;;;6171614;23;20168;-89
2023/02/12 03:03:47;;;;;;;58.33;24.77;;;;;;;;;;6171863;23;20902;-90
2023/02/12 03:06:55;;;;;;;58.03;24.67;;;;;;;;;;6171625;23;20175;-93
2023/02/12 03:10:03;;;;;;;63.00;25.23;;;;;;;;;;6172645;23;20172;-91
2023/02/12 03:13:10;;;;;;;61.37;26.37;;;;;;;;;;6171306;23;20197;-91
2023/02/12 03:16:19;;;;;;;63.10;25.97;;;;;;;;;;6172400;23;20165;-91
2023/02/12 03:19:27;;;;;;;62.63;26.70;;;;;;;;;;6172324;23;20177;-89
2023/02/12 03:22:35;;;;;;;57.30;24.87;;;;;;;;;;6173036;23;20173;-92
2023/02/12 03:25:45;;;;;;;60.93;24.50;;;;;;;;;;6173286;23;20185;-93
2023/02/12 03:28:50;;;;;;;61.03;24.30;;;;;;;;;;6172525;23;20238;-90
2023/02/12 03:31:59;;;;;;;61.00;25.37;;;;;;;;;;6172391;23;20671;-90
2023/02/12 03:35:17;;;;;;;54.43;24.77;;;;;;;;;;6170446;23;20240;-91
2023/02/12 03:38:25;;;;;;;55.87;23.80;;;;;;;;;;6171928;23;20201;-93
2023/02/12 03:41:34;;;;;;;56.50;25.00;;;;;;;;;;6171469;23;20189;-93
2023/02/12 03:44:45;;;;;;;56.67;24.37;;;;;;;;;;6172594;23;20172;-87
2023/02/12 03:47:54;;;;;;;55.20;23.97;;;;;;;;;;6171675;23;20172;-92
2023/02/12 03:51:04;;;;;;;53.50;24.83;;;;;;;;;;6171389;23;20161;-92
2023/02/12 03:54:10;;;;;;;57.40;25.30;;;;;;;;;;6172293;23;20567;-90
2023/02/12 03:57:18;;;;;;;58.03;25.00;;;;;;;;;;6172424;23;20185;-91
2023/02/12 04:00:27;;;;;;;56.43;25.00;;;;;;;;;;6171962;23;20156;-91
2023/02/12 04:03:33;;;;;;;58.70;24.50;;;;;;;;;;6173644;23;20177;-91
2023/02/12 04:06:40;;;;;;;66.43;25.40;;;;;;;;;;6172735;23;20168;-91
2023/02/12 04:09:46;;;;;;;64.13;24.43;;;;;;;;;;6172643;23;20169;-91
2023/02/12 04:13:08;;;;;;;60.13;25.80;;;;;;;;;;6171300;23;20241;-92
2023/02/12 04:16:18;;;;;;;59.40;24.57;;;;;;;;;;6172659;23;20192;-92
2023/02/12 04:19:36;;;;;;;55.27;25.03;;;;;;;;;;6172019;23;20205;-91
2023/02/12 04:22:47;;;;;;;57.33;24.30;;;;;;;;;;6173360;23;20197;-91
2023/02/12 04:25:57;;;;;;;66.33;24.60;;;;;;;;;;6170661;23;20176;-91
2023/02/12 04:29:09;;;;;;;53.17;24.17;;;;;;;;;;6172898;23;20181;-91
2023/02/12 04:32:16;;;;;;;55.63;24.23;;;;;;;;;;6171499;23;20243;-90
2023/02/12 04:35:24;;;;;;;59.90;25.07;;;;;;;;;;6174291;23;20265;-89
2023/02/12 04:38:33;;;;;;;56.97;25.53;;;;;;;;;;6175004;23;20164;-89
2023/02/12 04:41:38;;;;;;;61.53;25.17;;;;;;;;;;6172867;23;20164;-89
2023/02/12 04:44:44;;;;;;;60.70;24.93;;;;;;;;;;6174752;23;20172;-90
2023/02/12 04:47:49;;;;;;;57.53;24.93;;;;;;;;;;6174437;23;20611;-90
2023/02/12 04:50:55;;;;;;;63.57;24.63;;;;;;;;;;6174052;23;20528;-91
2023/02/12 04:54:02;;;;;;;57.20;24.70;;;;;;;;;;6173358;23;20192;-90
2023/02/12 04:57:08;;;;;;;55.47;23.93;;;;;;;;;;6173054;23;20176;-90
2023/02/12 05:00:15;;;;;;;51.30;22.77;;;;;;;;;;6173193;23;20168;-91
2023/02/12 05:03:20;;;;;;;59.87;23.73;;;;;;;;;;6173520;23;20172;-91
2023/02/12 05:06:30;;;;;;;54.93;23.37;;;;;;;;;;6172601;23;20220;-91
2023/02/12 05:09:37;;;;;;;59.83;24.67;;;;;;;;;;6174180;23;20172;-89
2023/02/12 05:13:08;;;;;;;55.17;25.13;;;;;;;;;;6172946;23;20232;-90
2023/02/12 05:16:14;;;;;;;54.83;25.27;;;;;;;;;;6174338;23;20213;-91
2023/02/12 05:19:19;;;;;;;58.77;24.83;;;;;;;;;;6173057;23;20248;-91
2023/02/12 05:22:26;;;;;;;60.67;25.37;;;;;;;;;;6172730;23;20164;-90
2023/02/12 05:25:33;;;;;;;54.47;25.43;;;;;;;;;;6172256;23;20238;-91
2023/02/12 05:28:38;;;;;;;61.97;25.73;;;;;;;;;;6171717;23;20153;-91
2023/02/12 05:31:44;;;;;;;61.60;25.53;;;;;;;;;;6174087;23;20227;-92
2023/02/12 05:34:49;;;;;;;59.23;25.73;;;;;;;;;;6174031;23;20199;-93
2023/02/12 05:37:55;;;;;;;58.63;24.47;;;;;;;;;;6173878;23;20285;-91
2023/02/12 05:41:06;;;;;;;66.97;24.90;;;;;;;;;;6171644;23;20168;-91
2023/02/12 05:44:13;;;;;;;56.53;24.63;;;;;;;;;;6171054;23;20179;-91
2023/02/12 05:47:19;;;;;;;58.53;25.03;;;;;;;;;;6172903;23;20172;-92
2023/02/12 05:50:25;;;;;;;59.43;24.60;;;;;;;;;;6172470;23;20228;-91
2023/02/12 05:53:38;;;;;;;58.83;25.00;;;;;;;;;;6172112;23;20200;-91
2023/02/12 05:56:47;;;;;;;58.03;24.93;;;;;;;;;;6171368;23;20168;-92
2023/02/12 05:59:53;;;;;;;62.03;24.97;;;;;;;;;;6171884;23;20157;-91
2023/02/12 06:02:58;;;;;;;59.33;25.50;;;;;;;;;;6173021;23;20176;-91
2023/02/12 06:06:04;;;;;;;61.83;25.07;;;;;;;;;;6174306;23;20177;-91
2023/02/12 06:09:11;;;;;;;52.07;24.13;;;;;;;;;;6173994;23;20205;-91
2023/02/12 06:12:18;;;;;;;57.07;24.37;;;;;;;;;;6170997;23;20163;-91
2023/02/12 06:15:24;;;;;;;62.17;24.70;;;;;;;;;;6171548;23;20153;-91
2023/02/12 06:18:55;;;;;;;57.90;25.87;;;;;;;;;;6172080;23;20152;-91
2023/02/12 06:22:01;;;;;;;60.27;26.13;;;;;;;;;;6172776;23;20694;-92
2023/02/12 06:25:07;;;;;;;65.50;26.30;;;;;;;;;;6172473;23;20299;-93
2023/02/12 06:28:14;;;;;;;59.27;25.43;;;;;;;;;;6172450;23;20168;-90
2023/02/12 06:31:21;;;;;;;64.70;26.60;;;;;;;;;;6172526;23;20257;-93
2023/02/12 06:34:29;;;;;;;67.50;26.90;;;;;;;;;;6173608;23;20288;-91
2023/02/12 06:37:35;;;;;;;60.07;25.27;;;;;;;;;;6173727;23;20220;-91
2023/02/12 06:40:40;;;;;;;61.60;25.63;;;;;;;;;;6173572;23;20172;-92
2023/02/12 06:43:47;;;;;;;55.40;24.93;;;;;;;;;;6172505;23;20209;-91
2023/02/12 06:46:52;;;;;;;57.93;26.50;;;;;;;;;;6173067;23;20212;-92
2023/02/12 06:49:57;;;;;;;59.47;24.67;;;;;;;;;;6173565;23;20501;-91
2023/02/12 06:53:02;;;;;;;61.40;24.63;;;;;;;;;;6174809;23;20169;-91
2023/02/12 06:56:10;;;;;;;58.90;25.63;;;;;;;;;;6173381;23;20219;-91
2023/02/12 06:59:17;;;;;;;62.60;25.50;;;;;;;;;;6172448;23;20176;-90
2023/02/12 07:02:23;;;;;;;63.50;25.70;;;;;;;;;;6176892;22;20277;-91
2023/02/12 07:05:29;;;;;;;52.60;24.93;;;;;;;;;;6216841;22;20179;-91
2023/02/12 07:08:34;;;;;;;60.83;25.43;;;;;;;;;;6216430;23;20172;-90
2023/02/12 07:11:40;;;;;;;57.93;25.23;;;;;;;;;;6215798;23;20218;-92
2023/02/12 07:14:48;;;;;;;64.47;25.70;;;;;;;;;;6215805;22;20199;-91
2023/02/12 07:17:53;;;;;;;62.17;25.20;;;;;;;;;;6215377;23;20171;-90
2023/02/12 07:20:58;;;;;;;65.50;26.87;;;;;;;;;;6216255;22;20172;-92
2023/02/12 07:24:04;;;;;;;63.50;25.83;;;;;;;;;;6216535;22;20210;-91
2023/02/12 07:27:09;;;;;;;59.83;25.70;;;;;;;;;;6215628;22;20244;-91
2023/02/12 07:30:18;;;;;;;60.77;24.60;;;;;;;;;;6215780;22;20167;-90
2023/02/12 07:33:23;;;;;;;63.73;26.30;;;;;;;;;;6217744;22;20215;-91
2023/02/12 07:36:30;;;;;;;69.20;26.87;;;;;;;;;;6217785;22;20171;-90
2023/02/12 07:39:35;;;;;;;65.73;27.43;;;;;;;;;;6214916;22;20171;-90
2023/02/12 07:42:41;;;;;;;59.97;26.60;;;;;;;;;;6214581;23;20543;-92
2023/02/12 07:45:49;;;;;;;62.30;26.50;;;;;;;;;;6214131;22;20211;-91
2023/02/12 07:48:55;;;;;;;67.27;27.53;;;;;;;;;;6213488;22;20147;-91
2023/02/12 07:52:00;;;;;;;72.17;27.63;;;;;;;;;;6214538;23;20234;-90
2023/02/12 07:55:06;;;;;;;75.50;27.63;;;;;;;;;;6214682;22;20202;-91
2023/02/12 07:58:11;;;;;;;74.90;28.87;;;;;;;;;;6213443;23;20249;-90
2023/02/12 08:01:19;;;;;;;98.47;32.17;;;;;;;;;;6213148;23;20171;-92
2023/02/12 08:04:26;;;;;;;125.93;35.27;;;;;;;;;;6213995;22;20243;-92
2023/02/12 08:07:31;;;;;;;126.47;35.63;;;;;;;;;;6214337;23;20174;-91
2023/02/12 08:10:37;;;;;;;123.73;36.03;;;;;;;;;;6217163;22;20158;-92
2023/02/12 08:13:49;;;;;;;147.63;34.53;;;;;;;;;;6216020;22;20286;-91
2023/02/12 08:16:56;;;;;;;130.00;34.20;;;;;;;;;;6217654;22;20198;-88
2023/02/12 08:20:29;;;;;;;131.27;33.77;;;;;;;;;;6215472;22;20151;-90
2023/02/12 08:23:36;;;;;;;151.60;36.70;;;;;;;;;;6236388;22;20171;-93
2023/02/12 08:26:41;;;;;;;143.07;38.63;;;;;;;;;;6217340;22;20167;-89
2023/02/12 08:29:47;;;;;;;155.37;38.70;;;;;;;;;;6216921;23;20172;-91
2023/02/12 08:32:53;;;;;;;146.00;40.87;;;;;;;;;;6217123;22;20170;-89
2023/02/12 08:36:02;;;;;;;156.23;40.17;;;;;;;;;;6216781;22;20208;-90
2023/02/12 08:39:09;;;;;;;161.47;41.70;;;;;;;;;;6218588;22;20163;-90
2023/02/12 08:42:19;;;;;;;141.00;39.20;;;;;;;;;;6219161;22;20188;-90
2023/02/12 08:45:24;;;;;;;150.00;39.10;;;;;;;;;;6218223;23;20571;-91
2023/02/12 08:48:33;;;;;;;161.97;40.03;;;;;;;;;;6218907;22;20175;-90
2023/02/12 08:51:39;;;;;;;150.50;39.10;;;;;;;;;;6218409;22;20167;-92
2023/02/12 08:54:45;;;;;;;147.77;39.30;;;;;;;;;;6218241;23;20186;-90
2023/02/12 08:57:52;;;;;;;162.27;40.57;;;;;;;;;;6218714;22;20171;-92
2023/02/12 09:00:59;;;;;;;169.60;42.40;;;;;;;;;;6218725;23;20194;-92
2023/02/12 09:04:09;;;;;;;159.50;40.83;;;;;;;;;;6218874;23;20246;-90
2023/02/12 09:07:15;;;;;;;183.03;43.17;;;;;;;;;;6218096;22;20167;-91
2023/02/12 09:10:21;;;;;;;182.37;42.10;;;;;;;;;;6218535;23;20207;-89
2023/02/12 09:13:27;;;;;;;171.70;42.87;;;;;;;;;;6218617;22;20168;-91
2023/02/12 09:16:35;;;;;;;190.37;44.90;;;;;;;;;;6222392;22;20247;-89
2023/02/12 09:20:11;;;;;;;182.63;43.07;;;;;;;;;;6223109;22;20630;-89
2023/02/12 13:23:56;;;;;;;68.07;25.20;;;;;;;;;;6163672;23;20196;-88
2023/02/12 13:27:03;;;;;;;63.95;23.35;;;;;;;;;;6178110;23;20620;-89
2023/02/12 13:33:44;;;;;;;63.40;24.20;;;;;;;;;;6177546;23;20176;-88
2023/02/12 13:36:51;;;;;;;70.50;23.77;;;;;;;;;;6158854;23;20189;-93
2023/02/12 13:40:05;;;;;;;58.80;22.27;;;;;;;;;;6161761;23;20492;-88
2023/02/12 13:43:22;;;;;;;68.63;24.33;;;;;;;;;;6162910;23;20169;-88
2023/02/12 13:46:33;;;;;;;69.55;24.70;;;;;;;;;;6178586;23;20192;-89
2023/02/12 13:49:43;;;;;;;64.40;23.40;;;;;;;;;;6162144;23;20480;-89
2023/02/12 13:52:58;;;;;;;69.18;25.10;;;;;;;;;;6176881;23;20172;-89
2023/02/12 13:56:13;;;;;;;65.40;23.33;;;;;;;;;;6160529;23;20263;-88
2023/02/12 13:59:52;;;;;;;67.18;23.58;;;;;;;;;;6160652;23;20185;-89
2023/02/12 14:03:10;;;;;;;63.80;23.40;;;;;;;;;;6099070;23;20218;-89
2023/02/12 14:06:17;;;;;;;63.92;21.88;;;;;;;;;;6100524;23;20218;-90
2023/02/12 14:09:34;;;;;;;61.38;22.92;;;;;;;;;;6099906;23;20282;-87
2023/02/12 14:12:45;;;;;;;61.75;22.05;;;;;;;;;;6141524;23;20188;-90
2023/02/12 14:15:52;;;;;;;63.45;22.60;;;;;;;;;;6174857;23;20213;-88
2023/02/12 14:23:25;;;;;;;58.13;21.35;;;;;;;;;;6176305;23;20144;-89
2023/02/12 14:26:37;;;;;;;55.05;21.42;;;;;;;;;;6157695;23;20173;-89
2023/02/12 14:30:00;;;;;;;55.95;21.02;;;;;;;;;;6159704;23;20173;-89
2023/02/12 14:33:18;;;;;;;58.58;20.48;;;;;;;;;;6158031;23;20208;-92
2023/02/12 14:36:40;;;;;;;56.15;21.13;;;;;;;;;;6175786;23;20173;-89
2023/02/12 14:39:45;;;;;;;57.65;21.67;;;;;;;;;;6156057;23;20241;-90
2023/02/12 14:42:56;;;;;;;58.95;22.85;;;;;;;;;;6174178;23;20231;-88
2023/02/12 14:46:16;;;;;;;66.75;23.17;;;;;;;;;;6155440;23;20172;-90
2023/02/12 14:49:27;;;;;;;63.65;23.00;;;;;;;;;;6156412;23;20189;-90
2023/02/12 14:52:34;;;;;;;65.68;23.08;;;;;;;;;;6156396;23;20169;-92
2023/02/12 14:55:46;;;;;;;71.43;24.92;;;;;;;;;;6174636;23;20196;-90
2023/02/12 14:58:54;;;;;;;73.10;25.40;;;;;;;;;;6158964;23;20189;-90
2023/02/12 15:02:01;;;;;;;72.88;25.40;;;;;;;;;;6171563;23;20220;-91
2023/02/12 15:05:15;;;;;;;70.20;25.25;;;;;;;;;;6156189;23;20164;-90
2023/02/12 15:08:27;;;;;;;67.25;24.90;;;;;;;;;;6154638;23;20659;-92
2023/02/12 15:11:37;;;;;;;74.25;25.00;;;;;;;;;;6151697;23;20247;-92
2023/02/12 15:14:45;;;;;;;68.93;24.00;;;;;;;;;;6153264;23;20218;-91
2023/02/12 15:17:56;;;;;;;66.60;23.10;;;;;;;;;;6152023;23;20172;-89
2023/02/12 15:21:06;;;;;;;68.93;26.35;;;;;;;;;;6152374;23;20176;-90
2023/02/12 15:24:14;;;;;;;70.32;24.80;;;;;;;;;;6152970;23;20216;-92
2023/02/12 15:27:20;;;;;;;67.03;25.88;;;;;;;;;;6170953;23;20179;-90
2023/02/12 15:30:27;;;;;;;75.15;26.15;;;;;;;;;;6155064;23;20507;-90
2023/02/12 15:33:34;;;;;;;68.63;23.30;;;;;;;;;;6170959;23;20192;-92
2023/02/12 15:36:46;;;;;;;67.90;23.03;;;;;;;;;;6151749;23;20176;-92
2023/02/12 15:39:54;;;;;;;70.35;24.02;;;;;;;;;;6157274;23;20293;-93
2023/02/12 15:43:01;;;;;;;66.13;22.97;;;;;;;;;;6154464;23;20226;-91
2023/02/12 15:46:14;;;;;;;63.80;22.97;;;;;;;;;;6171409;23;20173;-91
2023/02/12 15:49:21;;;;;;;67.23;23.77;;;;;;;;;;6154917;23;20237;-90
2023/02/12 15:52:33;;;;;;;69.27;25.20;;;;;;;;;;6154088;23;20176;-92
2023/02/12 15:55:42;;;;;;;76.73;25.63;;;;;;;;;;6154524;23;20196;-91
2023/02/12 15:58:49;;;;;;;80.63;26.67;;;;;;;;;;6172330;23;20216;-91
2023/02/12 16:01:59;;;;;;;82.57;27.83;;;;;;;;;;6154089;23;20176;-91
2023/02/12 16:05:05;;;;;;;82.07;27.37;;;;;;;;;;6154027;23;20168;-91
2023/02/12 16:08:16;;;;;;;78.53;27.37;;;;;;;;;;6153977;23;20260;-91
2023/02/12 16:11:25;;;;;;;80.93;28.23;;;;;;;;;;6154262;23;20242;-91
2023/02/12 16:14:39;;;;;;;89.60;28.97;;;;;;;;;;6172032;23;20651;-91
2023/02/12 16:17:48;;;;;;;91.25;28.73;;;;;;;;;;6153596;23;20165;-91
2023/02/12 16:21:35;;;;;;;89.77;29.07;;;;;;;;;;6154252;23;20172;-90
2023/02/12 16:24:46;;;;;;;83.37;29.63;;;;;;;;;;6153991;23;20316;-92
2023/02/12 16:27:56;;;;;;;77.57;26.37;;;;;;;;;;6171982;23;20271;-90
2023/02/12 16:31:09;;;;;;;76.23;26.80;;;;;;;;;;6159605;23;20208;-91
2023/02/12 16:34:32;;;;;;;81.03;27.53;;;;;;;;;;6156204;23;20164;-92
2023/02/12 16:37:46;;;;;;;86.07;28.20;;;;;;;;;;6172927;23;20239;-91
2023/02/12 16:41:10;;;;;;;84.57;27.73;;;;;;;;;;6171565;23;20620;-91
2023/02/12 16:44:30;;;;;;;84.67;27.53;;;;;;;;;;6172446;23;20172;-90
2023/02/12 16:47:37;;;;;;;81.67;27.93;;;;;;;;;;6171277;23;20193;-93
2023/02/12 16:50:47;;;;;;;91.03;29.80;;;;;;;;;;6156075;23;20223;-89
2023/02/12 16:53:59;;;;;;;77.97;27.80;;;;;;;;;;6174203;23;20168;-91
2023/02/12 16:57:06;;;;;;;86.00;28.43;;;;;;;;;;6155152;23;20285;-91
2023/02/12 17:00:17;;;;;;;99.00;31.10;;;;;;;;;;6155987;23;20191;-93
2023/02/12 17:03:25;;;;;;;96.27;30.27;;;;;;;;;;6155452;23;20234;-89
2023/02/12 17:06:32;;;;;;;98.87;29.90;;;;;;;;;;6155598;23;20172;-90
2023/02/12 17:09:40;;;;;;;86.03;29.70;;;;;;;;;;6155836;23;20234;-90
2023/02/12 17:12:52;;;;;;;86.70;28.53;;;;;;;;;;6156103;23;20199;-89
2023/02/12 17:16:02;;;;;;;103.47;30.53;;;;;;;;;;6158637;23;20197;-90
2023/02/12 17:23:24;;;;;;;96.63;30.97;;;;;;;;;;6176527;23;20132;-92
2023/02/12 17:26:29;;;;;;;107.00;31.50;;;;;;;;;;6156895;23;20268;-92
2023/02/12 17:29:38;;;;;;;92.57;28.90;;;;;;;;;;6173259;23;20172;-92
2023/02/12 17:32:46;;;;;;;115.90;39.03;;;;;;;;;;6155447;23;20177;-92
2023/02/12 17:35:54;;;;;;;93.03;30.33;;;;;;;;;;6173257;23;20239;-91
2023/02/12 17:39:02;;;;;;;97.80;30.93;;;;;;;;;;6155644;23;20172;-90
2023/02/12 17:42:10;;;;;;;99.57;31.67;;;;;;;;;;6173435;23;20176;-90
2023/02/12 17:45:16;;;;;;;100.53;32.03;;;;;;;;;;6171673;23;20172;-89
2023/02/12 17:48:25;;;;;;;119.27;36.33;;;;;;;;;;6172799;23;20172;-91
2023/02/12 17:51:31;;;;;;;120.87;36.77;;;;;;;;;;6155046;23;20221;-90
2023/02/12 17:54:44;;;;;;;135.67;39.97;;;;;;;;;;6155607;23;20215;-91
2023/02/12 17:57:55;;;;;;;112.13;34.10;;;;;;;;;;6153868;23;20320;-88
2023/02/12 18:01:05;;;;;;;107.37;32.87;;;;;;;;;;6153253;23;20180;-90
2023/02/12 18:04:15;;;;;;;103.67;32.60;;;;;;;;;;6154738;23;20168;-90
2023/02/12 18:07:22;;;;;;;116.47;37.80;;;;;;;;;;6169886;23;20721;-89
2023/02/12 18:10:29;;;;;;;105.00;32.87;;;;;;;;;;6155354;23;20220;-89
2023/02/12 18:13:36;;;;;;;100.20;32.50;;;;;;;;;;6171117;23;20241;-87
2023/02/12 18:16:41;;;;;;;114.30;35.27;;;;;;;;;;6154285;23;20244;-91
2023/02/12 18:19:51;;;;;;;103.20;33.07;;;;;;;;;;6173648;23;20172;-90
2023/02/12 18:22:58;;;;;;;104.33;33.70;;;;;;;;;;6154882;23;20180;-90
2023/02/12 18:26:09;;;;;;;107.63;32.37;;;;;;;;;;6173617;23;20199;-88
2023/02/12 18:29:18;;;;;;;96.40;30.77;;;;;;;;;;6156395;23;20171;-90
2023/02/12 18:32:30;;;;;;;91.70;31.23;;;;;;;;;;6158224;23;20167;-91
2023/02/12 18:35:40;;;;;;;95.53;32.10;;;;;;;;;;6158505;23;20196;-88
2023/02/12 18:38:48;;;;;;;102.53;34.27;;;;;;;;;;6156572;23;20172;-91
2023/02/12 18:41:57;;;;;;;100.73;32.23;;;;;;;;;;6155652;23;20220;-88
2023/02/12 18:45:04;;;;;;;98.07;32.67;;;;;;;;;;6156115;23;20228;-89
2023/02/12 18:48:15;;;;;;;99.73;32.03;;;;;;;;;;6173240;23;20173;-91
2023/02/12 18:51:27;;;;;;;101.20;34.20;;;;;;;;;;6155605;23;20267;-88
2023/02/12 18:54:45;;;;;;;102.33;33.83;;;;;;;;;;6170193;23;20177;-90
2023/02/12 18:57:52;;;;;;;114.17;34.40;;;;;;;;;;6153167;23;20181;-89
2023/02/12 19:01:01;;;;;;;97.57;33.20;;;;;;;;;;6156235;23;20167;-89
2023/02/12 19:04:11;;;;;;;94.57;30.20;;;;;;;;;;6156611;23;20279;-90
2023/02/12 19:07:23;;;;;;;101.90;31.97;;;;;;;;;;6173198;23;20164;-89
2023/02/12 19:10:28;;;;;;;100.63;32.83;;;;;;;;;;6154592;23;20252;-88
2023/02/12 19:13:34;;;;;;;106.13;34.20;;;;;;;;;;6173374;23;20196;-88
2023/02/12 19:16:43;;;;;;;112.83;34.10;;;;;;;;;;6157991;23;20199;-89
2023/02/12 19:20:08;;;;;;;118.63;37.60;;;;;;;;;;6156676;23;20168;-87
2023/02/12 19:23:16;;;;;;;107.87;34.33;;;;;;;;;;6139638;23;20543;-88
2023/02/12 19:26:23;;;;;;;106.47;33.90;;;;;;;;;;6156145;23;20192;-88
2023/02/12 19:29:29;;;;;;;99.23;31.07;;;;;;;;;;6156990;23;20169;-88
2023/02/12 19:32:37;;;;;;;92.43;30.93;;;;;;;;;;6160849;23;20189;-89
2023/02/12 19:35:46;;;;;;;101.53;33.20;;;;;;;;;;6160272;23;20200;-90
2023/02/12 19:38:53;;;;;;;97.00;32.70;;;;;;;;;;6154578;23;20168;-90
2023/02/12 19:42:01;;;;;;;93.27;29.73;;;;;;;;;;6156553;23;20234;-91
2023/02/12 19:45:06;;;;;;;102.87;32.70;;;;;;;;;;6169743;23;20176;-87
2023/02/12 19:48:12;;;;;;;101.87;32.03;;;;;;;;;;6154732;23;20172;-90
2023/02/12 19:51:20;;;;;;;96.50;31.90;;;;;;;;;;6174457;23;20168;-91
2023/02/12 19:54:26;;;;;;;99.33;30.90;;;;;;;;;;6159244;23;20212;-91
2023/02/12 19:57:32;;;;;;;103.60;33.23;;;;;;;;;;6174284;23;20219;-89
2023/02/12 20:00:37;;;;;;;100.10;33.33;;;;;;;;;;6152019;23;20232;-89
2023/02/12 20:03:46;;;;;;;105.77;35.43;;;;;;;;;;6151764;23;20173;-89
2023/02/12 20:06:56;;;;;;;134.80;43.47;;;;;;;;;;6169585;23;20217;-90
2023/02/12 20:10:07;;;;;;;109.37;37.03;;;;;;;;;;6153393;23;20292;-90
2023/02/12 20:13:14;;;;;;;94.87;30.83;;;;;;;;;;6151194;23;20296;-89
2023/02/12 20:16:24;;;;;;;97.70;31.93;;;;;;;;;;6168502;23;20196;-87
2023/02/12 20:19:31;;;;;;;95.97;31.63;;;;;;;;;;6153296;23;20165;-91
2023/02/12 20:22:40;;;;;;;98.30;33.40;;;;;;;;;;6153227;23;20180;-91
2023/02/12 20:25:47;;;;;;;97.87;31.37;;;;;;;;;;6170951;23;20208;-92
2023/02/12 20:28:58;;;;;;;94.80;30.27;;;;;;;;;;6149008;23;20712;-88
2023/02/12 20:32:11;;;;;;;104.00;33.03;;;;;;;;;;6151648;23;20172;-92
2023/02/12 20:35:26;;;;;;;92.23;30.77;;;;;;;;;;6167733;23;20172;-89
2023/02/12 20:38:32;;;;;;;101.67;32.50;;;;;;;;;;6151227;23;20181;-90
2023/02/12 20:41:42;;;;;;;91.60;29.63;;;;;;;;;;6168661;23;20171;-90
2023/02/12 20:44:48;;;;;;;90.53;30.73;;;;;;;;;;6152180;23;20173;-88
2023/02/12 20:47:56;;;;;;;96.57;31.30;;;;;;;;;;6176718;23;20169;-89
2023/02/12 20:51:05;;;;;;;84.33;29.80;;;;;;;;;;6151934;23;20224;-90
2023/02/12 20:54:17;;;;;;;91.93;30.37;;;;;;;;;;6170033;23;20172;-91
2023/02/12 20:57:26;;;;;;;97.97;30.63;;;;;;;;;;6153584;23;20261;-90
2023/02/12 21:00:40;;;;;;;96.43;31.37;;;;;;;;;;6169462;23;20180;-88
2023/02/12 21:03:45;;;;;;;91.93;31.43;;;;;;;;;;6153094;23;20168;-90
2023/02/12 21:06:57;;;;;;;90.93;29.33;;;;;;;;;;6169576;23;20533;-89
2023/02/12 21:10:02;;;;;;;89.20;29.53;;;;;;;;;;6154085;23;20192;-89
2023/02/12 21:13:09;;;;;;;83.93;28.83;;;;;;;;;;6170624;23;20499;-90
2023/02/12 21:16:16;;;;;;;83.30;28.80;;;;;;;;;;6155588;23;20197;-89
2023/02/12 21:19:33;;;;;;;84.47;28.37;;;;;;;;;;6170763;23;20176;-90
2023/02/12 21:22:39;;;;;;;75.57;26.97;;;;;;;;;;6154534;23;20172;-88
2023/02/12 21:25:44;;;;;;;90.27;29.23;;;;;;;;;;6151444;23;20200;-91
2023/02/12 21:28:51;;;;;;;96.80;32.37;;;;;;;;;;6153022;23;20181;-89
2023/02/12 21:31:56;;;;;;;86.63;29.80;;;;;;;;;;6169936;23;20172;-92
2023/02/12 21:35:01;;;;;;;85.23;28.40;;;;;;;;;;6152627;23;20222;-89
2023/02/12 21:38:06;;;;;;;87.87;27.93;;;;;;;;;;6167430;23;20196;-91
2023/02/12 21:41:12;;;;;;;79.33;28.20;;;;;;;;;;6150704;23;20172;-90
2023/02/12 21:44:20;;;;;;;88.10;27.53;;;;;;;;;;6167410;23;20175;-89
2023/02/12 21:47:26;;;;;;;80.47;28.57;;;;;;;;;;6151273;23;20184;-89
2023/02/12 21:50:32;;;;;;;90.10;28.73;;;;;;;;;;6169919;23;20189;-90
2023/02/12 21:53:37;;;;;;;84.13;28.33;;;;;;;;;;6152230;23;20180;-91
2023/02/12 21:56:43;;;;;;;81.10;27.90;;;;;;;;;;6168604;23;20200;-89
2023/02/12 21:59:50;;;;;;;82.00;27.30;;;;;;;;;;6156942;23;20224;-89
2023/02/12 22:03:07;;;;;;;83.47;26.30;;;;;;;;;;6153406;23;20168;-86
2023/02/12 22:06:13;;;;;;;81.27;29.87;;;;;;;;;;6152996;23;20187;-88
2023/02/12 22:09:19;;;;;;;68.83;25.33;;;;;;;;;;6172092;23;20247;-89
2023/02/12 22:12:31;;;;;;;81.70;27.43;;;;;;;;;;6167711;23;20164;-89
2023/02/12 22:15:38;;;;;;;86.10;27.40;;;;;;;;;;6152764;23;20571;-90
2023/02/12 22:18:48;;;;;;;84.67;27.73;;;;;;;;;;6150022;23;20171;-89
2023/02/12 22:21:56;;;;;;;86.30;29.00;;;;;;;;;;6150693;23;20176;-89
2023/02/12 22:25:02;;;;;;;79.53;27.43;;;;;;;;;;6150515;23;20304;-88
2023/02/12 22:28:08;;;;;;;80.70;27.03;;;;;;;;;;6168159;23;20581;-90
2023/02/12 22:31:18;;;;;;;83.40;26.37;;;;;;;;;;6152758;23;20172;-89